Time;durP1;ratioP1;P1;durP2;ratioP2;P2;SDS_P1;SDS_P2;PMS_P1;PMS_P2;Temp;Humidity;BMP_temperature;BMP_pressure;BME280_temperature;BME280_humidity;BME280_pressure;Samples;Min_cycle;Max_cycle;Signal;HPM_P1;HPM_P2
2022/12/24 00:00:26;;;;;;;24.95;3.55;;;;;;;-143.48;85.80;118439.88;5052658;28;20384;-69
2022/12/24 00:02:52;;;;;;;33.35;4.30;;;;;;;-143.48;86.55;118439.88;5052628;28;20029;-69
2022/12/24 00:05:17;;;;;;;31.02;3.72;;;;;;;-143.48;86.21;118439.88;5034950;28;20025;-69
2022/12/24 00:07:42;;;;;;;27.98;3.67;;;;;;;-143.48;85.93;118439.88;5052389;28;20021;-69
2022/12/24 00:10:08;;;;;;;36.88;4.05;;;;;;;-143.48;85.49;118439.88;5054902;28;20037;-69
2022/12/24 00:12:34;;;;;;;28.30;3.65;;;;;;;-143.48;86.27;118439.88;5055389;28;20671;-69
2022/12/24 00:15:00;;;;;;;23.65;3.08;;;;;;;-143.48;85.70;118439.88;5055824;28;20096;-69
2022/12/24 00:17:25;;;;;;;26.38;4.30;;;;;;;-143.48;86.71;118439.88;5055308;28;20032;-69
2022/12/24 00:19:51;;;;;;;30.90;4.18;;;;;;;-143.48;86.42;118439.88;5055807;28;20064;-69
2022/12/24 00:22:16;;;;;;;30.10;4.22;;;;;;;-143.48;86.43;118439.88;5059189;28;20043;-69
2022/12/24 00:24:41;;;;;;;31.02;4.30;;;;;;;-143.48;86.88;118439.88;5058223;28;20500;-69
2022/12/24 00:27:06;;;;;;;31.30;5.15;;;;;;;-143.48;85.98;118439.88;5057427;28;20025;-70
2022/12/24 00:29:32;;;;;;;30.92;3.97;;;;;;;-143.48;87.06;118439.88;5057726;28;20388;-69
2022/12/24 00:31:58;;;;;;;28.42;4.28;;;;;;;-143.48;86.12;118439.88;5057754;28;20032;-70
2022/12/24 00:34:23;;;;;;;35.10;4.32;;;;;;;-143.48;87.83;118439.88;5057665;28;20025;-69
2022/12/24 00:36:49;;;;;;;33.17;4.63;;;;;;;-143.48;87.19;118439.88;5058479;28;20055;-70
2022/12/24 00:39:14;;;;;;;25.92;3.60;;;;;;;-143.48;87.42;118439.88;5056846;28;20028;-70
2022/12/24 00:41:40;;;;;;;28.88;4.00;;;;;;;-143.48;88.22;118439.88;5057931;28;20060;-71
2022/12/24 00:44:09;;;;;;;31.17;3.63;;;;;;;-143.48;88.13;118439.88;5055871;28;20473;-70
2022/12/24 00:46:35;;;;;;;31.08;4.43;;;;;;;-143.48;87.28;118439.88;5055411;28;20056;-69
2022/12/24 00:49:01;;;;;;;29.20;4.10;;;;;;;-143.48;87.54;118439.88;5055291;28;20100;-69
2022/12/24 00:51:26;;;;;;;28.52;4.00;;;;;;;-143.48;87.13;118439.88;5054930;28;20447;-69
2022/12/24 00:53:52;;;;;;;34.58;4.82;;;;;;;-143.48;88.95;118439.88;5054891;28;20021;-69
2022/12/24 00:56:17;;;;;;;38.65;4.50;;;;;;;-143.48;87.10;118439.88;5054896;28;20021;-69
2022/12/24 00:58:43;;;;;;;35.50;4.60;;;;;;;-143.48;87.64;118439.88;5054586;28;20072;-70
2022/12/24 01:01:09;;;;;;;36.85;3.88;;;;;;;-143.48;87.79;118439.88;5054778;28;20384;-69
2022/12/24 01:03:34;;;;;;;39.35;4.00;;;;;;;-143.48;87.74;118439.88;5054605;28;20527;-69
2022/12/24 01:06:05;;;;;;;43.08;5.35;;;;;;;-143.48;87.14;118439.88;5054431;28;20031;-69
2022/12/24 01:08:31;;;;;;;30.95;4.03;;;;;;;-143.48;87.26;118439.88;5054292;28;20369;-69
2022/12/24 01:10:56;;;;;;;33.75;5.00;;;;;;;-143.48;87.37;118439.88;5054569;28;20033;-69
2022/12/24 01:13:22;;;;;;;34.63;5.07;;;;;;;-143.48;87.95;118439.88;5054228;28;20464;-69
2022/12/24 01:15:48;;;;;;;36.92;4.63;;;;;;;-143.48;88.59;118439.88;5054154;28;20044;-69
2022/12/24 01:18:13;;;;;;;32.72;4.82;;;;;;;-143.48;87.73;118439.88;5036327;28;20438;-69
2022/12/24 01:20:38;;;;;;;30.85;4.82;;;;;;;-143.48;87.94;118439.88;5053580;28;20021;-69
2022/12/24 01:23:04;;;;;;;40.05;4.38;;;;;;;-143.48;87.54;118439.88;5036153;28;20698;-69
2022/12/24 01:25:29;;;;;;;40.85;5.18;;;;;;;-143.48;87.94;118439.88;5017408;28;1081498;-69
2022/12/24 01:27:54;;;;;;;35.17;4.93;;;;;;;-143.48;87.86;118439.88;5055154;28;20075;-69
2022/12/24 01:30:20;;;;;;;32.17;4.45;;;;;;;-143.48;88.20;118439.88;5054939;28;20108;-69
2022/12/24 01:32:45;;;;;;;39.17;4.25;;;;;;;-143.48;88.29;118439.88;5054957;28;20024;-69
2022/12/24 01:35:11;;;;;;;37.83;4.45;;;;;;;-143.48;88.12;118439.88;5037095;28;20032;-69
2022/12/24 01:37:37;;;;;;;43.33;4.80;;;;;;;-143.48;88.77;118439.88;5054763;28;20480;-69
2022/12/24 01:45:43;;;;;;;36.78;4.53;;;;;;;-143.48;88.43;118439.88;5055126;28;20045;-70
2022/12/24 01:48:21;;;;;;;;;;;;;;;-143.48;88.59;118439.88;5055029;28;20043;-69
2022/12/24 01:50:49;;;;;;;37.90;4.57;;;;;;;-143.48;88.66;118439.88;5054502;28;19913;-69
2022/12/24 01:53:15;;;;;;;36.50;4.40;;;;;;;-143.48;88.68;118439.88;5054600;28;20025;-69
2022/12/24 01:55:42;;;;;;;32.30;4.20;;;;;;;-143.48;89.02;118439.88;5054452;28;20040;-69
2022/12/24 01:58:09;;;;;;;45.20;5.35;;;;;;;-143.48;89.19;118439.88;5054569;28;20087;-69
2022/12/24 02:00:35;;;;;;;25.65;3.97;;;;;;;-143.48;88.97;118439.88;5054503;28;20017;-69
2022/12/24 02:03:00;;;;;;;38.20;5.10;;;;;;;-143.48;89.04;118439.88;5054454;28;20021;-69
2022/12/24 02:05:49;;;;;;;41.35;5.03;;;;;;;-143.48;89.10;118439.88;5054344;28;20487;-70
2022/12/24 02:08:15;;;;;;;35.58;4.07;;;;;;;-143.48;88.97;118439.88;5054433;28;20020;-69
2022/12/24 02:10:41;;;;;;;34.83;4.75;;;;;;;-143.48;89.66;118439.88;5054226;28;20032;-69
2022/12/24 02:13:07;;;;;;;34.78;4.47;;;;;;;-143.48;89.27;118439.88;5054266;28;20155;-69
2022/12/24 02:15:53;;;;;;;40.63;5.07;;;;;;;-143.48;89.44;118439.88;5054086;28;20033;-69
2022/12/24 02:18:27;;;;;;;25.10;4.57;;;;;;;-143.48;89.64;118439.88;5054138;28;20167;-69
2022/12/24 02:21:04;;;;;;;40.42;4.72;;;;;;;-143.48;89.46;118439.88;5054327;28;20101;-69
2022/12/24 02:23:55;;;;;;;36.85;4.88;;;;;;;-143.48;90.04;118439.88;5053895;28;20476;-69
2022/12/24 02:26:44;;;;;;;34.90;4.25;;;;;;;-143.48;90.18;118439.88;5053900;28;20067;-69
2022/12/24 02:30:02;;;;;;;37.45;5.13;;;;;;;-143.48;90.30;118439.88;5035985;28;20028;-69
2022/12/24 02:32:44;;;;;;;38.70;4.78;;;;;;;-143.48;89.92;118439.88;5049966;28;20077;-69
2022/12/24 02:35:18;;;;;;;35.83;5.20;;;;;;;-143.48;90.06;118439.88;5053826;28;20380;-69
2022/12/24 02:38:12;;;;;;;34.25;4.45;;;;;;;-143.48;90.53;118439.88;5035754;28;20025;-69
2022/12/24 02:40:51;;;;;;;37.05;5.63;;;;;;;-143.48;90.38;118439.88;5053492;28;20025;-67
2022/12/24 02:43:23;;;;;;;44.13;5.82;;;;;;;-143.48;91.04;118439.88;5053666;28;20020;-69
2022/12/24 02:46:03;;;;;;;43.05;6.03;;;;;;;-143.48;91.12;118439.88;5053718;28;20112;-69
2022/12/24 02:48:30;;;;;;;38.17;6.03;;;;;;;-143.48;90.81;118439.88;5053540;28;20079;-69
2022/12/24 02:51:05;;;;;;;39.17;4.97;;;;;;;-143.48;90.79;118439.88;5053390;28;20472;-69
2022/12/24 02:53:31;;;;;;;34.45;3.85;;;;;;;-143.48;90.97;118439.88;5035544;28;20032;-69
2022/12/24 02:56:11;;;;;;;41.17;4.72;;;;;;;-143.48;91.15;118439.88;5053532;28;20040;-69
2022/12/24 02:59:08;;;;;;;42.80;4.32;;;;;;;-143.48;91.70;118439.88;5053280;28;20021;-69
2022/12/24 03:01:45;;;;;;;35.28;3.95;;;;;;;-143.48;91.65;118439.88;5053127;28;20036;-69
2022/12/24 03:04:38;;;;;;;37.75;5.03;;;;;;;-143.48;91.88;118439.88;5053106;28;20370;-69
2022/12/24 03:07:40;;;;;;;34.05;3.72;;;;;;;-143.48;91.77;118439.88;5053201;28;20033;-69
2022/12/24 03:10:17;;;;;;;34.53;4.35;;;;;;;-143.48;91.32;118439.88;5053162;28;20033;-69
2022/12/24 03:13:06;;;;;;;34.67;4.30;;;;;;;-143.48;91.30;118439.88;5052914;28;20503;-71
2022/12/24 03:15:32;;;;;;;31.73;4.70;;;;;;;-143.48;90.90;118439.88;5053037;28;20032;-69
2022/12/24 03:18:01;;;;;;;37.92;4.75;;;;;;;-143.48;91.32;118439.88;5053116;28;20419;-69
2022/12/24 03:20:52;;;;;;;40.35;4.10;;;;;;;-143.48;91.23;118439.88;5052961;28;20021;-69
2022/12/24 03:23:17;;;;;;;32.63;4.55;;;;;;;-143.48;90.60;118439.88;5031737;28;20043;-69
2022/12/24 03:25:44;;;;;;;30.25;4.85;;;;;;;-143.48;90.48;118439.88;5052925;28;20107;-69
2022/12/24 03:28:12;;;;;;;25.13;3.58;;;;;;;-143.48;90.71;118439.88;5052906;28;20079;-69
2022/12/24 03:30:40;;;;;;;30.83;3.85;;;;;;;-143.48;90.22;118439.88;5035003;28;20032;-70
2022/12/24 03:33:05;;;;;;;33.38;4.47;;;;;;;-143.48;89.98;118439.88;5034743;28;20028;-69
2022/12/24 03:35:31;;;;;;;31.65;3.85;;;;;;;-143.48;90.11;118439.88;5052661;28;20021;-69
2022/12/24 03:37:56;;;;;;;36.63;4.28;;;;;;;-143.48;89.79;118439.88;5052672;28;20384;-69
2022/12/24 03:40:21;;;;;;;35.25;4.90;;;;;;;-143.48;89.49;118439.88;5052692;28;20025;-69
2022/12/24 03:42:47;;;;;;;32.42;3.72;;;;;;;-143.48;89.86;118439.88;5052577;28;20091;-70
2022/12/24 03:45:12;;;;;;;28.17;4.10;;;;;;;-143.48;90.17;118439.88;5052553;28;20021;-69
2022/12/24 03:47:37;;;;;;;31.48;4.38;;;;;;;-143.48;89.67;118439.88;5052568;28;20040;-69
2022/12/24 03:50:03;;;;;;;33.45;4.03;;;;;;;-143.48;89.83;118439.88;5052544;28;20057;-69
2022/12/24 03:52:28;;;;;;;29.48;4.75;;;;;;;-143.48;89.65;118439.88;5052534;28;20037;-69
2022/12/24 03:54:53;;;;;;;27.63;4.15;;;;;;;-143.48;89.63;118439.88;5052549;28;20036;-70
2022/12/24 03:57:19;;;;;;;26.98;3.80;;;;;;;-143.48;89.37;118439.88;5052469;28;20036;-70
2022/12/24 03:59:44;;;;;;;31.10;4.50;;;;;;;-143.48;89.28;118439.88;5052475;28;20032;-69
2022/12/24 04:02:09;;;;;;;24.13;3.42;;;;;;;-143.48;90.01;118439.88;5052381;28;20029;-70
2022/12/24 04:04:36;;;;;;;32.88;4.03;;;;;;;-143.48;89.44;118439.88;5052533;28;20185;-70
2022/12/24 04:07:02;;;;;;;22.17;3.78;;;;;;;-143.48;89.39;118439.88;5034544;28;20025;-69
2022/12/24 04:09:27;;;;;;;43.17;4.05;;;;;;;-143.48;89.77;118439.88;5052420;28;20033;-70
2022/12/24 04:11:53;;;;;;;36.53;4.07;;;;;;;-143.48;90.19;118439.88;5034447;28;20029;-69
2022/12/24 04:14:18;;;;;;;28.63;3.80;;;;;;;-143.48;90.46;118439.88;5052432;28;20388;-70
2022/12/24 04:16:43;;;;;;;32.40;4.22;;;;;;;-143.48;90.71;118439.88;5052310;28;20051;-67
2022/12/24 04:19:09;;;;;;;33.28;4.45;;;;;;;-143.48;90.48;118439.88;5052294;28;20029;-67
2022/12/24 04:21:34;;;;;;;33.83;4.18;;;;;;;-143.48;90.51;118439.88;5052299;28;20029;-67
2022/12/24 04:23:59;;;;;;;29.83;4.20;;;;;;;-143.48;90.89;118439.88;5052145;28;20072;-69
2022/12/24 04:26:24;;;;;;;33.47;3.70;;;;;;;-143.48;90.75;118439.88;5052125;28;20024;-70
2022/12/24 04:28:50;;;;;;;34.65;4.68;;;;;;;-143.48;91.61;118439.88;5052282;28;20102;-69
2022/12/24 04:31:16;;;;;;;35.83;4.68;;;;;;;-143.48;91.35;118439.88;5034291;28;20016;-70
2022/12/24 04:33:42;;;;;;;31.48;3.95;;;;;;;-143.48;91.28;118439.88;5052410;28;20100;-69
2022/12/24 04:36:11;;;;;;;38.78;5.15;;;;;;;-143.48;91.23;118439.88;5052170;28;20491;-69
2022/12/24 04:38:37;;;;;;;32.15;4.57;;;;;;;-143.48;91.62;118439.88;5052087;28;20090;-68
2022/12/24 04:41:09;;;;;;;38.88;4.90;;;;;;;-143.48;91.72;118439.88;5052057;28;20440;-67
2022/12/24 04:43:34;;;;;;;40.92;5.13;;;;;;;-143.48;91.88;118439.88;5051992;28;20032;-69
2022/12/24 04:46:05;;;;;;;39.00;4.45;;;;;;;-143.48;91.42;118439.88;5052044;28;20380;-67
2022/12/24 04:48:31;;;;;;;33.10;5.25;;;;;;;-143.48;92.16;118439.88;5034086;28;20053;-67
2022/12/24 04:50:56;;;;;;;37.17;4.95;;;;;;;-143.48;91.96;118439.88;5052065;28;20056;-69
2022/12/24 04:53:21;;;;;;;41.35;5.72;;;;;;;-143.48;92.13;118439.88;5051910;28;20477;-70
2022/12/24 04:55:47;;;;;;;29.98;4.78;;;;;;;-143.48;92.10;118439.88;5055150;28;20044;-69
2022/12/24 04:58:12;;;;;;;32.67;4.43;;;;;;;-143.48;92.38;118439.88;5055584;28;20017;-69
2022/12/24 05:00:39;;;;;;;37.97;5.07;;;;;;;-143.48;92.88;118439.88;5037700;28;20365;-69
2022/12/24 05:03:05;;;;;;;27.60;4.50;;;;;;;-143.48;92.70;118439.88;5037628;28;20032;-70
2022/12/24 05:05:30;;;;;;;42.35;5.43;;;;;;;-143.48;92.64;118439.88;5055495;28;20020;-69
2022/12/24 05:07:55;;;;;;;43.35;5.20;;;;;;;-143.48;92.46;118439.88;5055433;28;20025;-69
2022/12/24 05:10:21;;;;;;;33.78;4.75;;;;;;;-143.48;92.75;118439.88;5055197;28;20113;-69
2022/12/24 05:12:46;;;;;;;37.05;4.38;;;;;;;-143.48;92.71;118439.88;5055548;28;20468;-69
2022/12/24 05:15:11;;;;;;;40.20;4.07;;;;;;;-143.48;92.36;118439.88;5055385;28;20032;-69
2022/12/24 05:17:36;;;;;;;46.25;5.28;;;;;;;-143.48;92.37;118439.88;5055211;28;20059;-69
2022/12/24 05:20:03;;;;;;;39.15;4.70;;;;;;;-143.48;92.30;118439.88;5055251;28;20038;-69
2022/12/24 05:27:56;;;;;;;32.95;4.32;;;;;;;-143.48;92.53;118439.88;5055127;28;20099;-69
2022/12/24 05:30:21;;;;;;;44.15;5.00;;;;;;;-143.48;92.29;118439.88;5054918;28;20025;-69
2022/12/24 05:32:46;;;;;;;44.10;4.78;;;;;;;-143.48;92.13;118439.88;5036986;28;20025;-69
2022/12/24 05:35:12;;;;;;;33.33;4.85;;;;;;;-143.48;92.15;118439.88;5054792;28;20115;-69
2022/12/24 05:37:38;;;;;;;30.73;4.00;;;;;;;-143.48;92.15;118439.88;5055116;28;20477;-68
2022/12/24 05:40:03;;;;;;;38.20;4.57;;;;;;;-143.48;92.27;118439.88;5054875;28;20032;-68
2022/12/24 05:42:29;;;;;;;37.75;4.53;;;;;;;-143.48;92.19;118439.88;5054603;28;20327;-68
2022/12/24 05:44:54;;;;;;;37.42;5.13;;;;;;;-143.48;92.10;118439.88;5054736;28;20104;-67
2022/12/24 05:47:19;;;;;;;33.35;4.18;;;;;;;-143.48;92.29;118439.88;5054749;28;20029;-68
2022/12/24 05:49:45;;;;;;;33.92;4.10;;;;;;;-143.48;92.25;118439.88;5054907;28;20036;-68
2022/12/24 05:52:10;;;;;;;35.60;5.03;;;;;;;-143.48;93.43;118439.88;5054549;28;20130;-68
2022/12/24 05:54:35;;;;;;;39.80;4.53;;;;;;;-143.48;94.14;118439.88;5054540;28;20074;-68
2022/12/24 05:57:00;;;;;;;32.30;4.38;;;;;;;-143.48;93.96;118439.88;5054481;28;20067;-68
2022/12/24 05:59:26;;;;;;;35.50;4.40;;;;;;;-143.48;94.31;118439.88;5054535;28;20025;-68
2022/12/24 06:01:51;;;;;;;35.75;4.60;;;;;;;-143.48;94.28;118439.88;5054515;28;20108;-68
2022/12/24 06:04:16;;;;;;;32.55;4.63;;;;;;;-143.48;94.17;118439.88;5054425;28;20531;-68
2022/12/24 06:06:42;;;;;;;39.40;4.40;;;;;;;-143.48;93.97;118439.88;5053159;28;20035;-68
2022/12/24 06:09:07;;;;;;;38.35;4.45;;;;;;;-143.48;93.97;118439.88;5054307;28;20067;-68
2022/12/24 06:11:32;;;;;;;30.70;3.85;;;;;;;-143.48;94.16;118439.88;5054341;28;20376;-68
2022/12/24 06:13:57;;;;;;;36.97;4.53;;;;;;;-143.48;93.93;118439.88;5054196;28;20082;-68
2022/12/24 06:16:24;;;;;;;31.58;4.47;;;;;;;-143.48;93.93;118439.88;5054148;28;20021;-68
2022/12/24 06:18:49;;;;;;;30.73;4.40;;;;;;;-143.48;94.22;118439.88;5054150;28;20035;-68
2022/12/24 06:21:15;;;;;;;31.55;4.13;;;;;;;-143.48;94.00;118439.88;5054071;28;20092;-68
2022/12/24 06:23:42;;;;;;;40.38;4.70;;;;;;;-143.48;94.13;118439.88;5054020;28;20556;-68
2022/12/24 06:26:12;;;;;;;37.15;4.45;;;;;;;-143.48;94.27;118439.88;5053946;28;20071;-68
2022/12/24 06:28:37;;;;;;;40.58;4.65;;;;;;;-143.48;93.90;118439.88;5035966;28;20120;-68
2022/12/24 06:31:05;;;;;;;43.67;5.00;;;;;;;-143.48;93.89;118439.88;5053824;28;20108;-68
2022/12/24 06:33:31;;;;;;;39.55;4.93;;;;;;;-143.48;94.26;118439.88;5053840;28;20074;-68
2022/12/24 06:35:57;;;;;;;35.83;4.85;;;;;;;-143.48;93.66;118439.88;5053711;28;20037;-68
2022/12/24 06:38:22;;;;;;;36.75;4.40;;;;;;;-143.48;93.45;118439.88;5053683;28;20025;-68
2022/12/24 06:40:48;;;;;;;26.00;4.15;;;;;;;-143.48;93.48;118439.88;5053711;28;20016;-68
2022/12/24 06:43:14;;;;;;;31.60;4.60;;;;;;;-143.48;93.30;118439.88;5053503;28;20118;-68
2022/12/24 06:45:44;;;;;;;40.33;5.25;;;;;;;-143.48;93.16;118439.88;5053556;28;20024;-68
2022/12/24 06:48:09;;;;;;;40.47;5.07;;;;;;;-143.48;93.56;118439.88;5053619;28;20039;-68
2022/12/24 06:50:34;;;;;;;41.80;4.93;;;;;;;-143.48;93.24;118439.88;5035608;28;20021;-68
2022/12/24 06:53:00;;;;;;;36.10;4.28;;;;;;;-143.48;92.93;118439.88;5053443;28;20035;-68
2022/12/24 06:55:25;;;;;;;36.85;4.13;;;;;;;-143.48;93.19;118439.88;5053492;28;20029;-68
2022/12/24 06:57:50;;;;;;;31.63;4.57;;;;;;;-143.48;92.68;118439.88;5053351;28;20021;-68
2022/12/24 07:00:16;;;;;;;40.20;4.93;;;;;;;-143.48;92.25;118439.88;5053337;28;20460;-68
2022/12/24 07:02:43;;;;;;;35.78;5.18;;;;;;;-143.48;91.93;118439.88;5053221;28;20119;-68
2022/12/24 07:05:10;;;;;;;31.90;4.07;;;;;;;-143.48;91.91;118439.88;5053638;28;20028;-67
2022/12/24 07:07:36;;;;;;;42.08;4.80;;;;;;;-143.48;92.26;118439.88;5036244;28;20029;-68
2022/12/24 07:10:02;;;;;;;37.35;5.07;;;;;;;-143.48;91.99;118439.88;5035265;28;20021;-68
2022/12/24 07:12:28;;;;;;;36.67;5.75;;;;;;;-143.48;91.65;118439.88;5035178;28;20059;-68
2022/12/24 07:14:53;;;;;;;48.10;5.22;;;;;;;-143.48;91.64;118439.88;5035225;28;20365;-68
2022/12/24 07:17:18;;;;;;;41.30;5.97;;;;;;;-143.48;91.54;118439.88;5053361;28;20020;-68
2022/12/24 07:19:43;;;;;;;47.88;5.45;;;;;;;-143.48;91.82;118439.88;5053648;28;20036;-69
2022/12/24 07:22:09;;;;;;;43.13;5.13;;;;;;;-143.48;92.27;118439.88;5053160;28;20024;-68
2022/12/24 07:24:34;;;;;;;48.13;6.05;;;;;;;-143.48;91.91;118439.88;5034854;28;20051;-68
2022/12/24 07:26:59;;;;;;;37.22;4.50;;;;;;;-143.48;92.09;118439.88;5035056;28;20411;-69
2022/12/24 07:29:25;;;;;;;50.58;5.45;;;;;;;-143.48;92.25;118439.88;5053029;28;20025;-69
2022/12/24 07:31:50;;;;;;;42.33;5.28;;;;;;;-143.48;91.70;118439.88;5052692;28;20048;-69
2022/12/24 07:34:15;;;;;;;44.05;5.47;;;;;;;-143.48;92.04;118439.88;5035151;28;20021;-68
2022/12/24 07:36:41;;;;;;;48.03;5.68;;;;;;;-143.48;92.06;118439.88;5052672;28;20056;-69
2022/12/24 07:39:06;;;;;;;40.90;5.45;;;;;;;-143.48;91.57;118439.88;5034939;28;20024;-69
2022/12/24 07:41:31;;;;;;;40.78;4.85;;;;;;;-143.48;91.41;118439.88;5052749;28;20472;-68
2022/12/24 07:43:56;;;;;;;47.78;5.85;;;;;;;-143.48;90.86;118439.88;5034644;28;20108;-69
2022/12/24 07:46:22;;;;;;;45.38;5.22;;;;;;;-143.48;90.89;118439.88;5052702;28;20044;-68
2022/12/24 07:48:47;;;;;;;38.83;4.72;;;;;;;-143.48;90.99;118439.88;5052702;28;20049;-68
2022/12/24 07:51:12;;;;;;;41.70;5.55;;;;;;;-143.48;91.40;118439.88;5052562;28;20021;-68
2022/12/24 07:53:37;;;;;;;52.38;5.45;;;;;;;-143.48;90.85;118439.88;5052692;28;20159;-68
2022/12/24 07:56:03;;;;;;;35.92;5.45;;;;;;;-143.48;91.12;118439.88;5052498;28;20025;-68
2022/12/24 07:58:28;;;;;;;47.97;5.80;;;;;;;-143.48;91.55;118439.88;5052543;28;20472;-69
2022/12/24 08:00:55;;;;;;;40.75;5.45;;;;;;;-143.48;91.99;118439.88;5052354;28;20017;-69
2022/12/24 08:03:21;;;;;;;48.92;5.63;;;;;;;-143.48;91.52;118439.88;5053310;28;20028;-68
2022/12/24 08:05:47;;;;;;;41.92;6.60;;;;;;;-143.48;90.82;118439.88;5052751;28;20499;-69
2022/12/24 08:08:13;;;;;;;41.63;6.30;;;;;;;-143.48;91.29;118439.88;5034429;28;20484;-69
2022/12/24 08:10:40;;;;;;;45.17;5.60;;;;;;;-143.48;91.49;118439.88;5052447;28;20035;-68
2022/12/24 08:13:05;;;;;;;53.80;5.75;;;;;;;-143.48;91.56;118439.88;5052447;28;20029;-68
2022/12/24 08:15:31;;;;;;;43.97;5.43;;;;;;;-143.48;91.14;118439.88;5052420;28;20036;-69
2022/12/24 08:17:56;;;;;;;43.38;6.40;;;;;;;-143.48;91.18;118439.88;5052385;28;20021;-68
2022/12/24 08:20:22;;;;;;;36.92;5.20;;;;;;;-143.48;91.54;118439.88;5052385;28;20035;-68
2022/12/24 08:22:47;;;;;;;40.97;5.13;;;;;;;-143.48;91.75;118439.88;5052240;28;20025;-68
2022/12/24 08:25:12;;;;;;;43.45;5.65;;;;;;;-143.48;91.27;118439.88;5052186;28;20106;-68
2022/12/24 08:27:38;;;;;;;39.97;5.40;;;;;;;-143.48;91.11;118439.88;5052352;28;20025;-68
2022/12/24 08:30:04;;;;;;;43.08;5.22;;;;;;;-143.48;91.10;118439.88;5036455;28;20111;-69
2022/12/24 08:32:29;;;;;;;43.15;5.45;;;;;;;-143.48;91.38;118439.88;5038617;28;20492;-68
2022/12/24 08:34:54;;;;;;;43.78;5.10;;;;;;;-143.48;90.66;118439.88;5056305;28;20052;-69
2022/12/24 08:37:20;;;;;;;49.47;5.63;;;;;;;-143.48;90.74;118439.88;5056369;28;20112;-69
2022/12/24 08:39:45;;;;;;;44.08;6.65;;;;;;;-143.48;89.79;118439.88;5038376;28;20031;-68
2022/12/24 08:42:10;;;;;;;42.78;6.15;;;;;;;-143.48;89.80;118439.88;5056403;28;20379;-69
2022/12/24 08:44:35;;;;;;;47.13;5.82;;;;;;;-143.48;89.93;118439.88;5056276;28;20035;-68
2022/12/24 08:47:01;;;;;;;40.45;5.32;;;;;;;-143.48;89.85;118439.88;5039081;28;20115;-69
2022/12/24 08:49:26;;;;;;;40.65;5.18;;;;;;;-143.48;89.68;118439.88;5038250;28;20025;-69
2022/12/24 08:51:51;;;;;;;46.33;6.30;;;;;;;-143.48;89.75;118439.88;5055992;28;20116;-69
2022/12/24 08:54:17;;;;;;;49.90;5.57;;;;;;;-143.48;89.54;118439.88;5056171;28;20451;-69
2022/12/24 08:56:42;;;;;;;46.65;5.38;;;;;;;-143.48;90.32;118439.88;5038244;28;20029;-69
2022/12/24 08:59:10;;;;;;;44.95;4.97;;;;;;;-143.48;89.83;118439.88;5056006;28;20071;-69
2022/12/24 09:01:35;;;;;;;52.22;5.25;;;;;;;-143.48;90.22;118439.88;5038047;28;20028;-69
2022/12/24 09:04:01;;;;;;;33.70;5.40;;;;;;;-143.48;89.83;118439.88;5055927;28;20376;-69
2022/12/24 09:06:27;;;;;;;43.88;5.78;;;;;;;-143.48;89.09;118439.88;5055957;28;20384;-69
2022/12/24 09:08:52;;;;;;;46.45;5.65;;;;;;;-143.48;89.21;118439.88;5055782;28;20025;-69
2022/12/24 09:11:18;;;;;;;51.20;6.57;;;;;;;-143.48;89.34;118439.88;5037822;28;20025;-69
2022/12/24 09:13:43;;;;;;;57.55;7.50;;;;;;;-143.48;88.78;118439.88;5037710;28;20107;-69
2022/12/24 09:16:09;;;;;;;46.88;6.07;;;;;;;-143.48;89.06;118439.88;5055705;28;20090;-69
2022/12/24 09:18:35;;;;;;;35.05;4.60;;;;;;;-143.48;88.82;118439.88;5055673;28;20360;-69
2022/12/24 09:21:10;;;;;;;46.60;5.20;;;;;;;-143.48;88.94;118439.88;5055759;28;20108;-70
2022/12/24 09:23:39;;;;;;;36.08;5.70;;;;;;;-143.48;87.97;118439.88;5055390;28;20052;-69
2022/12/24 09:26:06;;;;;;;42.47;5.60;;;;;;;-143.48;87.96;118439.88;5055463;28;20053;-69
2022/12/24 09:28:31;;;;;;;46.47;5.82;;;;;;;-143.48;87.48;118439.88;5055328;28;20029;-69
2022/12/24 09:30:59;;;;;;;55.22;6.05;;;;;;;-143.48;87.50;118439.88;5055487;28;20028;-69
2022/12/24 09:33:25;;;;;;;45.92;6.35;;;;;;;-143.48;87.86;118439.88;5055156;28;20060;-69
2022/12/24 09:35:52;;;;;;;44.75;5.78;;;;;;;-143.48;87.23;118439.88;5054932;28;20192;-69
2022/12/24 09:38:18;;;;;;;45.22;6.20;;;;;;;-143.48;87.63;118439.88;5055131;28;20020;-70
2022/12/24 09:40:43;;;;;;;47.65;6.40;;;;;;;-143.48;87.78;118439.88;5054494;28;20029;-69
2022/12/24 09:43:19;;;;;;;38.03;5.90;;;;;;;-143.48;86.77;118439.88;5055398;28;20384;-69
2022/12/24 09:46:07;;;;;;;41.65;5.15;;;;;;;-143.48;85.90;118439.88;5056494;28;20025;-68
2022/12/24 09:48:38;;;;;;;45.10;5.20;;;;;;;-143.48;84.96;118439.88;5055210;28;20076;-68
2022/12/24 09:51:14;;;;;;;37.10;5.47;;;;;;;-143.48;86.69;118439.88;5037126;28;20117;-69
2022/12/24 09:53:45;;;;;;;32.85;5.20;;;;;;;-143.48;86.76;118439.88;5054833;28;20059;-68
2022/12/24 09:56:27;;;;;;;37.28;5.95;;;;;;;-143.48;86.81;118439.88;5054759;28;20399;-69
2022/12/24 09:58:57;;;;;;;45.85;5.45;;;;;;;-143.48;86.76;118439.88;5055065;28;20380;-69
2022/12/24 10:01:22;;;;;;;41.53;5.85;;;;;;;-143.48;86.94;118439.88;5055342;28;20017;-68
2022/12/24 10:03:48;;;;;;;40.38;5.80;;;;;;;-143.48;86.16;118439.88;5055142;28;20028;-67
2022/12/24 10:06:23;;;;;;;43.83;5.70;;;;;;;-143.48;86.04;118439.88;5055317;28;20036;-70
2022/12/24 10:09:13;;;;;;;42.40;5.55;;;;;;;-143.48;86.32;118439.88;5055046;28;20515;-70
2022/12/24 10:11:55;;;;;;;37.97;4.97;;;;;;;-143.48;86.39;118439.88;5055041;28;20044;-71
2022/12/24 10:14:27;;;;;;;42.80;5.32;;;;;;;-143.48;84.87;118439.88;5055288;28;20428;-70
2022/12/24 10:17:38;;;;;;;41.28;5.07;;;;;;;-143.48;82.41;118439.88;5054895;28;20538;-71
2022/12/24 10:20:42;;;;;;;47.40;5.53;;;;;;;-143.48;84.67;118439.88;5055589;28;20027;-70
2022/12/24 10:23:18;;;;;;;34.75;5.07;;;;;;;-143.48;83.88;118439.88;5055160;28;20029;-70
2022/12/24 10:25:51;;;;;;;45.13;5.60;;;;;;;-143.48;81.92;118439.88;5054583;28;20131;-71
2022/12/24 10:28:30;;;;;;;37.97;4.72;;;;;;;-143.48;79.38;118439.88;5054709;28;20033;-71
2022/12/24 10:31:00;;;;;;;32.75;5.32;;;;;;;-143.48;80.66;118439.88;5054945;28;20025;-72
2022/12/24 10:33:34;;;;;;;52.70;7.07;;;;;;;-143.48;79.45;118439.88;5054724;28;20033;-71
2022/12/24 10:35:59;;;;;;;42.58;5.55;;;;;;;-143.48;80.40;118439.88;5054846;28;20541;-70
2022/12/24 10:38:25;;;;;;;43.75;5.90;;;;;;;-143.48;81.97;118439.88;5054738;28;20051;-70
2022/12/24 10:40:54;;;;;;;33.88;5.13;;;;;;;-143.48;81.42;118439.88;5036673;28;20021;-70
2022/12/24 10:43:22;;;;;;;34.78;5.47;;;;;;;-143.48;82.64;118439.88;5054614;28;20024;-68
2022/12/24 10:45:52;;;;;;;37.75;4.82;;;;;;;-143.48;83.11;118439.88;5036443;28;20021;-70
2022/12/24 10:48:27;;;;;;;42.25;5.43;;;;;;;-143.48;83.98;118439.88;5054516;28;20035;-70
2022/12/24 10:51:13;;;;;;;38.65;5.22;;;;;;;-143.48;83.22;118439.88;5054366;28;20021;-69
2022/12/24 10:53:43;;;;;;;35.97;4.40;;;;;;;-143.48;83.70;118439.88;5053643;28;20060;-70
2022/12/24 10:56:10;;;;;;;31.17;4.68;;;;;;;-143.48;84.62;118439.88;5053910;28;20029;-68
2022/12/24 10:58:41;;;;;;;36.70;5.07;;;;;;;-143.48;83.47;118439.88;5054054;28;20021;-67
2022/12/24 11:01:06;;;;;;;34.28;5.28;;;;;;;-143.48;83.58;118439.88;5054241;28;20021;-68
2022/12/24 11:03:35;;;;;;;33.22;5.32;;;;;;;-143.48;83.89;118439.88;5054596;28;20052;-69
2022/12/24 11:06:05;;;;;;;39.38;5.25;;;;;;;-143.48;83.59;118439.88;5054466;28;20479;-69
2022/12/24 11:08:31;;;;;;;37.10;5.18;;;;;;;-143.48;82.90;118439.88;5052371;28;20080;-68
2022/12/24 11:11:12;;;;;;;39.67;5.70;;;;;;;-143.48;83.54;118439.88;5052152;28;20025;-68
2022/12/24 11:13:45;;;;;;;34.58;5.10;;;;;;;-143.48;81.97;118439.88;5053000;28;20028;-68
2022/12/24 11:16:22;;;;;;;35.30;4.97;;;;;;;-143.48;81.23;118439.88;5053225;28;20025;-68
2022/12/24 11:18:55;;;;;;;35.45;4.75;;;;;;;-143.48;82.75;118439.88;5053378;28;20029;-68